Aviation Digital Data Service (ADDS)

Output produced by METARs form (2254 UTC 20 January 2019)
found at http://www.aviationweather.gov/metar/data/
 
METAR text: ZJHK 202200Z 03006MPS 8000 BKN010 BKN026 19/17 Q1019 NOSIG
Conditions at: ZJHK (HAIKOU , CN) observed 2200 UTC 20 January 2019
Temperature: 19.0°C (66°F)
Dewpoint: 17.0°C (63°F) [RH = 88%]
Pressure (altimeter): 30.09 inches Hg (1019.0 mb)
Winds: from the NNE (30 degrees) at 14 MPH (12 knots; 6.2 m/s)
Visibility: 5 miles ( 8 km)
Ceiling: 1000 feet AGL
Clouds: broken clouds at 1000 feet AGL
broken clouds at 2600 feet AGL
Weather: no significant weather observed at this time

METAR text: ZJHK 202100Z 03006MPS 8000 BKN010 BKN033 19/17 Q1019 NOSIG
Conditions at: ZJHK (HAIKOU , CN) observed 2100 UTC 20 January 2019
Temperature: 19.0°C (66°F)
Dewpoint: 17.0°C (63°F) [RH = 88%]
Pressure (altimeter): 30.09 inches Hg (1019.0 mb)
Winds: from the NNE (30 degrees) at 14 MPH (12 knots; 6.2 m/s)
Visibility: 5 miles ( 8 km)
Ceiling: 1000 feet AGL
Clouds: broken clouds at 1000 feet AGL
broken clouds at 3300 feet AGL
Weather: no significant weather observed at this time

METAR text: ZJHK 202000Z 05007MPS 9999 SCT010 BKN043 20/18 Q1018 NOSIG
Conditions at: ZJHK (HAIKOU , CN) observed 2000 UTC 20 January 2019
Temperature: 20.0°C (68°F)
Dewpoint: 18.0°C (64°F) [RH = 88%]
Pressure (altimeter): 30.06 inches Hg (1018.0 mb)
Winds: from the NE (50 degrees) at 16 MPH (14 knots; 7.2 m/s)
Visibility: 6 or more miles (10+ km)
Ceiling: 4300 feet AGL
Clouds: scattered clouds at 1000 feet AGL
broken clouds at 4300 feet AGL
Weather: no significant weather observed at this time

METAR text: ZJHK 201900Z 04005MPS 9999 SCT010 BKN043 20/19 Q1018 NOSIG
Conditions at: ZJHK (HAIKOU , CN) observed 1900 UTC 20 January 2019
Temperature: 20.0°C (68°F)
Dewpoint: 19.0°C (66°F) [RH = 94%]
Pressure (altimeter): 30.06 inches Hg (1018.0 mb)
Winds: from the NE (40 degrees) at 12 MPH (10 knots; 5.1 m/s)
Visibility: 6 or more miles (10+ km)
Ceiling: 4300 feet AGL
Clouds: scattered clouds at 1000 feet AGL
broken clouds at 4300 feet AGL
Weather: no significant weather observed at this time

METAR text: ZJHK 201800Z 02005MPS 340V050 9999 -RA BKN010 BKN043 21/19 Q1019 NOSIG
Conditions at: ZJHK (HAIKOU , CN) observed 1800 UTC 20 January 2019
Temperature: 21.0°C (70°F)
Dewpoint: 19.0°C (66°F) [RH = 88%]
Pressure (altimeter): 30.09 inches Hg (1019.0 mb)
Winds: from the NNE (20 degrees) at 12 MPH (10 knots; 5.1 m/s)
Visibility: 6 or more miles (10+ km)
Ceiling: 1000 feet AGL
Clouds: broken clouds at 1000 feet AGL
broken clouds at 4300 feet AGL
Weather: -RA  (light rain)

METAR text: ZJHK 201700Z 36004MPS 330V050 6000 BKN010 BKN043 21/20 Q1019 NOSIG
Conditions at: ZJHK (HAIKOU , CN) observed 1700 UTC 20 January 2019
Temperature: 21.0°C (70°F)
Dewpoint: 20.0°C (68°F) [RH = 94%]
Pressure (altimeter): 30.09 inches Hg (1019.0 mb)
Winds: from the N (360 degrees) at 9 MPH (8 knots; 4.1 m/s)
Visibility: 4 miles ( 6 km)
Ceiling: 1000 feet AGL
Clouds: broken clouds at 1000 feet AGL
broken clouds at 4300 feet AGL
Weather: no significant weather observed at this time

METAR text: ZJHK 201600Z 01003MPS 340V070 7000 BKN010 21/20 Q1018 NOSIG
Conditions at: ZJHK (HAIKOU , CN) observed 1600 UTC 20 January 2019
Temperature: 21.0°C (70°F)
Dewpoint: 20.0°C (68°F) [RH = 94%]
Pressure (altimeter): 30.06 inches Hg (1018.0 mb)
Winds: from the N (10 degrees) at 7 MPH (6 knots; 3.1 m/s)
Visibility: 4 miles ( 7 km)
Ceiling: 1000 feet AGL
Clouds: broken clouds at 1000 feet AGL
Weather: no significant weather observed at this time

METAR text: ZJHK 201500Z 01002MPS 350V050 7000 FEW013 21/19 Q1018 NOSIG
Conditions at: ZJHK (HAIKOU , CN) observed 1500 UTC 20 January 2019
Temperature: 21.0°C (70°F)
Dewpoint: 19.0°C (66°F) [RH = 88%]
Pressure (altimeter): 30.06 inches Hg (1018.0 mb)
Winds: from the N (10 degrees) at 5 MPH (4 knots; 2.1 m/s)
Visibility: 4 miles ( 7 km)
Ceiling: at least 12,000 feet AGL
Clouds: few clouds at 1300 feet AGL
Weather: no significant weather observed at this time

METAR text: ZJHK 201400Z 06002MPS 9999 FEW013 21/19 Q1018 NOSIG
Conditions at: ZJHK (HAIKOU , CN) observed 1400 UTC 20 January 2019
Temperature: 21.0°C (70°F)
Dewpoint: 19.0°C (66°F) [RH = 88%]
Pressure (altimeter): 30.06 inches Hg (1018.0 mb)
Winds: from the ENE (60 degrees) at 5 MPH (4 knots; 2.1 m/s)
Visibility: 6 or more miles (10+ km)
Ceiling: at least 12,000 feet AGL
Clouds: few clouds at 1300 feet AGL
Weather: no significant weather observed at this time

METAR text: ZJHK 201300Z 06003MPS 9999 SCT013 21/19 Q1017 NOSIG
Conditions at: ZJHK (HAIKOU , CN) observed 1300 UTC 20 January 2019
Temperature: 21.0°C (70°F)
Dewpoint: 19.0°C (66°F) [RH = 88%]
Pressure (altimeter): 30.03 inches Hg (1017.0 mb)
Winds: from the ENE (60 degrees) at 7 MPH (6 knots; 3.1 m/s)
Visibility: 6 or more miles (10+ km)
Ceiling: at least 12,000 feet AGL
Clouds: scattered clouds at 1300 feet AGL
Weather: no significant weather observed at this time

METAR text: ZJHK 201200Z 08003MPS 050V110 9999 SCT013 21/19 Q1017 NOSIG
Conditions at: ZJHK (HAIKOU , CN) observed 1200 UTC 20 January 2019
Temperature: 21.0°C (70°F)
Dewpoint: 19.0°C (66°F) [RH = 88%]
Pressure (altimeter): 30.03 inches Hg (1017.0 mb)
Winds: from the E (80 degrees) at 7 MPH (6 knots; 3.1 m/s)
Visibility: 6 or more miles (10+ km)
Ceiling: at least 12,000 feet AGL
Clouds: scattered clouds at 1300 feet AGL
Weather: no significant weather observed at this time

METAR text: ZJHK 201100Z 10003MPS 080V140 9999 SCT013 21/19 Q1017 NOSIG
Conditions at: ZJHK (HAIKOU , CN) observed 1100 UTC 20 January 2019
Temperature: 21.0°C (70°F)
Dewpoint: 19.0°C (66°F) [RH = 88%]
Pressure (altimeter): 30.03 inches Hg (1017.0 mb)
Winds: from the E (100 degrees) at 7 MPH (6 knots; 3.1 m/s)
Visibility: 6 or more miles (10+ km)
Ceiling: at least 12,000 feet AGL
Clouds: scattered clouds at 1300 feet AGL
Weather: no significant weather observed at this time

METAR text: ZJHK 201000Z 06004MPS 030V090 9999 SCT013 BKN033 22/19 Q1016 NOSIG
Conditions at: ZJHK (HAIKOU , CN) observed 1000 UTC 20 January 2019
Temperature: 22.0°C (72°F)
Dewpoint: 19.0°C (66°F) [RH = 83%]
Pressure (altimeter): 30.00 inches Hg (1016.0 mb)
Winds: from the ENE (60 degrees) at 9 MPH (8 knots; 4.1 m/s)
Visibility: 6 or more miles (10+ km)
Ceiling: 3300 feet AGL
Clouds: scattered clouds at 1300 feet AGL
broken clouds at 3300 feet AGL
Weather: no significant weather observed at this time

METAR text: ZJHK 200900Z 07005MPS 9999 SCT013 BKN033 23/19 Q1016 NOSIG
Conditions at: ZJHK (HAIKOU , CN) observed 0900 UTC 20 January 2019
Temperature: 23.0°C (73°F)
Dewpoint: 19.0°C (66°F) [RH = 78%]
Pressure (altimeter): 30.00 inches Hg (1016.0 mb)
Winds: from the ENE (70 degrees) at 12 MPH (10 knots; 5.1 m/s)
Visibility: 6 or more miles (10+ km)
Ceiling: 3300 feet AGL
Clouds: scattered clouds at 1300 feet AGL
broken clouds at 3300 feet AGL
Weather: no significant weather observed at this time

METAR text: ZJHK 200800Z 08006MPS 9999 SCT010 BKN033 23/19 Q1016 NOSIG
Conditions at: ZJHK (HAIKOU , CN) observed 0800 UTC 20 January 2019
Temperature: 23.0°C (73°F)
Dewpoint: 19.0°C (66°F) [RH = 78%]
Pressure (altimeter): 30.00 inches Hg (1016.0 mb)
Winds: from the E (80 degrees) at 14 MPH (12 knots; 6.2 m/s)
Visibility: 6 or more miles (10+ km)
Ceiling: 3300 feet AGL
Clouds: scattered clouds at 1000 feet AGL
broken clouds at 3300 feet AGL
Weather: no significant weather observed at this time

METAR text: ZJHK 200700Z 04006MPS 9999 SCT010 BKN033 22/19 Q1016 NOSIG
Conditions at: ZJHK (HAIKOU , CN) observed 0700 UTC 20 January 2019
Temperature: 22.0°C (72°F)
Dewpoint: 19.0°C (66°F) [RH = 83%]
Pressure (altimeter): 30.00 inches Hg (1016.0 mb)
Winds: from the NE (40 degrees) at 14 MPH (12 knots; 6.2 m/s)
Visibility: 6 or more miles (10+ km)
Ceiling: 3300 feet AGL
Clouds: scattered clouds at 1000 feet AGL
broken clouds at 3300 feet AGL
Weather: no significant weather observed at this time

METAR text: ZJHK 200600Z 03006MPS 9999 BKN010 OVC033 21/19 Q1017 NOSIG
Conditions at: ZJHK (HAIKOU , CN) observed 0600 UTC 20 January 2019
Temperature: 21.0°C (70°F)
Dewpoint: 19.0°C (66°F) [RH = 88%]
Pressure (altimeter): 30.03 inches Hg (1017.0 mb)
Winds: from the NNE (30 degrees) at 14 MPH (12 knots; 6.2 m/s)
Visibility: 6 or more miles (10+ km)
Ceiling: 1000 feet AGL
Clouds: broken clouds at 1000 feet AGL
overcast cloud deck at 3300 feet AGL
Weather: no significant weather observed at this time

METAR text: ZJHK 200500Z 04007MPS 010V070 9999 BKN010 OVC033 22/19 Q1018 NOSIG
Conditions at: ZJHK (HAIKOU , CN) observed 0500 UTC 20 January 2019
Temperature: 22.0°C (72°F)
Dewpoint: 19.0°C (66°F) [RH = 83%]
Pressure (altimeter): 30.06 inches Hg (1018.0 mb)
Winds: from the NE (40 degrees) at 16 MPH (14 knots; 7.2 m/s)
Visibility: 6 or more miles (10+ km)
Ceiling: 1000 feet AGL
Clouds: broken clouds at 1000 feet AGL
overcast cloud deck at 3300 feet AGL
Weather: no significant weather observed at this time

METAR text: ZJHK 200400Z 03007MPS 010V070 9999 BKN010 OVC033 22/20 Q1019 NOSIG
Conditions at: ZJHK (HAIKOU , CN) observed 0400 UTC 20 January 2019
Temperature: 22.0°C (72°F)
Dewpoint: 20.0°C (68°F) [RH = 88%]
Pressure (altimeter): 30.09 inches Hg (1019.0 mb)
Winds: from the NNE (30 degrees) at 16 MPH (14 knots; 7.2 m/s)
Visibility: 6 or more miles (10+ km)
Ceiling: 1000 feet AGL
Clouds: broken clouds at 1000 feet AGL
overcast cloud deck at 3300 feet AGL
Weather: no significant weather observed at this time

METAR text: ZJHK 200300Z 03005MPS 5000 -RA BKN010 OVC023 21/20 Q1019 NOSIG
Conditions at: ZJHK (HAIKOU , CN) observed 0300 UTC 20 January 2019
Temperature: 21.0°C (70°F)
Dewpoint: 20.0°C (68°F) [RH = 94%]
Pressure (altimeter): 30.09 inches Hg (1019.0 mb)
Winds: from the NNE (30 degrees) at 12 MPH (10 knots; 5.1 m/s)
Visibility: 3 miles ( 5 km)
Ceiling: 1000 feet AGL
Clouds: broken clouds at 1000 feet AGL
overcast cloud deck at 2300 feet AGL
Weather: -RA  (light rain)

METAR text: ZJHK 200200Z 02003MPS 350V060 9999 BKN010 OVC023 22/20 Q1019 NOSIG
Conditions at: ZJHK (HAIKOU , CN) observed 0200 UTC 20 January 2019
Temperature: 22.0°C (72°F)
Dewpoint: 20.0°C (68°F) [RH = 88%]
Pressure (altimeter): 30.09 inches Hg (1019.0 mb)
Winds: from the NNE (20 degrees) at 7 MPH (6 knots; 3.1 m/s)
Visibility: 6 or more miles (10+ km)
Ceiling: 1000 feet AGL
Clouds: broken clouds at 1000 feet AGL
overcast cloud deck at 2300 feet AGL
Weather: no significant weather observed at this time

METAR text: ZJHK 200100Z 06003MPS 7000 BKN007 OVC023 22/20 Q1018 BECMG AT0200 BKN010
Conditions at: ZJHK (HAIKOU , CN) observed 0100 UTC 20 January 2019
Temperature: 22.0°C (72°F)
Dewpoint: 20.0°C (68°F) [RH = 88%]
Pressure (altimeter): 30.06 inches Hg (1018.0 mb)
Winds: from the ENE (60 degrees) at 7 MPH (6 knots; 3.1 m/s)
Visibility: 4 miles ( 7 km)
Ceiling: 700 feet AGL
Clouds: broken clouds at 700 feet AGL
overcast cloud deck at 2300 feet AGL
Weather: no significant weather observed at this time

METAR text: ZJHK 200000Z 04003MPS 020V080 7000 BKN007 OVC023 21/20 Q1017 NOSIG
Conditions at: ZJHK (HAIKOU , CN) observed 0000 UTC 20 January 2019
Temperature: 21.0°C (70°F)
Dewpoint: 20.0°C (68°F) [RH = 94%]
Pressure (altimeter): 30.03 inches Hg (1017.0 mb)
Winds: from the NE (40 degrees) at 7 MPH (6 knots; 3.1 m/s)
Visibility: 4 miles ( 7 km)
Ceiling: 700 feet AGL
Clouds: broken clouds at 700 feet AGL
overcast cloud deck at 2300 feet AGL
Weather: no significant weather observed at this time

METAR text: ZJHK 192300Z 07004MPS 8000 SCT007 BKN023 21/20 Q1017 NOSIG
Conditions at: ZJHK (HAIKOU , CN) observed 2300 UTC 19 January 2019
Temperature: 21.0°C (70°F)
Dewpoint: 20.0°C (68°F) [RH = 94%]
Pressure (altimeter): 30.03 inches Hg (1017.0 mb)
Winds: from the ENE (70 degrees) at 9 MPH (8 knots; 4.1 m/s)
Visibility: 5 miles ( 8 km)
Ceiling: 2300 feet AGL
Clouds: scattered clouds at 700 feet AGL
broken clouds at 2300 feet AGL
Weather: no significant weather observed at this time

METAR text: ZJHK 192200Z 07004MPS 8000 BKN007 BKN023 21/20 Q1016 NOSIG
Conditions at: ZJHK (HAIKOU , CN) observed 2200 UTC 19 January 2019
Temperature: 21.0°C (70°F)
Dewpoint: 20.0°C (68°F) [RH = 94%]
Pressure (altimeter): 30.00 inches Hg (1016.0 mb)
Winds: from the ENE (70 degrees) at 9 MPH (8 knots; 4.1 m/s)
Visibility: 5 miles ( 8 km)
Ceiling: 700 feet AGL
Clouds: broken clouds at 700 feet AGL
broken clouds at 2300 feet AGL
Weather: no significant weather observed at this time

METAR text: ZJHK 192100Z 06003MPS 030V090 8000 BKN007 OVC023 21/20 Q1016 NOSIG
Conditions at: ZJHK (HAIKOU , CN) observed 2100 UTC 19 January 2019
Temperature: 21.0°C (70°F)
Dewpoint: 20.0°C (68°F) [RH = 94%]
Pressure (altimeter): 30.00 inches Hg (1016.0 mb)
Winds: from the ENE (60 degrees) at 7 MPH (6 knots; 3.1 m/s)
Visibility: 5 miles ( 8 km)
Ceiling: 700 feet AGL
Clouds: broken clouds at 700 feet AGL
overcast cloud deck at 2300 feet AGL
Weather: no significant weather observed at this time

METAR text: ZJHK 192000Z 04002MPS 8000 BKN007 OVC023 21/20 Q1017 NOSIG
Conditions at: ZJHK (HAIKOU , CN) observed 2000 UTC 19 January 2019
Temperature: 21.0°C (70°F)
Dewpoint: 20.0°C (68°F) [RH = 94%]
Pressure (altimeter): 30.03 inches Hg (1017.0 mb)
Winds: from the NE (40 degrees) at 5 MPH (4 knots; 2.1 m/s)
Visibility: 5 miles ( 8 km)
Ceiling: 700 feet AGL
Clouds: broken clouds at 700 feet AGL
overcast cloud deck at 2300 feet AGL
Weather: no significant weather observed at this time

METAR text: ZJHK 191900Z VRB01MPS 9999 BKN010 BKN023 21/20 Q1017 BECMG TL2000 BKN009
Conditions at: ZJHK (HAIKOU , CN) observed 1900 UTC 19 January 2019
Temperature: 21.0°C (70°F)
Dewpoint: 20.0°C (68°F) [RH = 94%]
Pressure (altimeter): 30.03 inches Hg (1017.0 mb)
Winds: variable direction winds at 2 MPH (2 knots; 1.0 m/s)
Visibility: 6 or more miles (10+ km)
Ceiling: 1000 feet AGL
Clouds: broken clouds at 1000 feet AGL
broken clouds at 2300 feet AGL
Weather: no significant weather observed at this time

METAR text: ZJHK 191800Z 08003MPS 9999 BKN010 BKN023 21/20 Q1017 NOSIG
Conditions at: ZJHK (HAIKOU , CN) observed 1800 UTC 19 January 2019
Temperature: 21.0°C (70°F)
Dewpoint: 20.0°C (68°F) [RH = 94%]
Pressure (altimeter): 30.03 inches Hg (1017.0 mb)
Winds: from the E (80 degrees) at 7 MPH (6 knots; 3.1 m/s)
Visibility: 6 or more miles (10+ km)
Ceiling: 1000 feet AGL
Clouds: broken clouds at 1000 feet AGL
broken clouds at 2300 feet AGL
Weather: no significant weather observed at this time

METAR text: ZJHK 191700Z 10002MPS 9999 BKN010 BKN023 21/20 Q1017 NOSIG
Conditions at: ZJHK (HAIKOU , CN) observed 1700 UTC 19 January 2019
Temperature: 21.0°C (70°F)
Dewpoint: 20.0°C (68°F) [RH = 94%]
Pressure (altimeter): 30.03 inches Hg (1017.0 mb)
Winds: from the E (100 degrees) at 5 MPH (4 knots; 2.1 m/s)
Visibility: 6 or more miles (10+ km)
Ceiling: 1000 feet AGL
Clouds: broken clouds at 1000 feet AGL
broken clouds at 2300 feet AGL
Weather: no significant weather observed at this time

METAR text: ZJHK 191600Z 11003MPS 9999 BKN010 21/20 Q1018 NOSIG
Conditions at: ZJHK (HAIKOU , CN) observed 1600 UTC 19 January 2019
Temperature: 21.0°C (70°F)
Dewpoint: 20.0°C (68°F) [RH = 94%]
Pressure (altimeter): 30.06 inches Hg (1018.0 mb)
Winds: from the ESE (110 degrees) at 7 MPH (6 knots; 3.1 m/s)
Visibility: 6 or more miles (10+ km)
Ceiling: 1000 feet AGL
Clouds: broken clouds at 1000 feet AGL
Weather: no significant weather observed at this time

METAR text: ZJHK 191500Z 10003MPS 9999 BKN010 21/20 Q1018 NOSIG
Conditions at: ZJHK (HAIKOU , CN) observed 1500 UTC 19 January 2019
Temperature: 21.0°C (70°F)
Dewpoint: 20.0°C (68°F) [RH = 94%]
Pressure (altimeter): 30.06 inches Hg (1018.0 mb)
Winds: from the E (100 degrees) at 7 MPH (6 knots; 3.1 m/s)
Visibility: 6 or more miles (10+ km)
Ceiling: 1000 feet AGL
Clouds: broken clouds at 1000 feet AGL
Weather: no significant weather observed at this time

METAR text: ZJHK 191400Z 10002MPS 9999 BKN010 BKN033 20/19 Q1018 NOSIG
Conditions at: ZJHK (HAIKOU , CN) observed 1400 UTC 19 January 2019
Temperature: 20.0°C (68°F)
Dewpoint: 19.0°C (66°F) [RH = 94%]
Pressure (altimeter): 30.06 inches Hg (1018.0 mb)
Winds: from the E (100 degrees) at 5 MPH (4 knots; 2.1 m/s)
Visibility: 6 or more miles (10+ km)
Ceiling: 1000 feet AGL
Clouds: broken clouds at 1000 feet AGL
broken clouds at 3300 feet AGL
Weather: no significant weather observed at this time

METAR text: ZJHK 191300Z 10003MPS 9999 BKN010 BKN026 21/19 Q1017 NOSIG
Conditions at: ZJHK (HAIKOU , CN) observed 1300 UTC 19 January 2019
Temperature: 21.0°C (70°F)
Dewpoint: 19.0°C (66°F) [RH = 88%]
Pressure (altimeter): 30.03 inches Hg (1017.0 mb)
Winds: from the E (100 degrees) at 7 MPH (6 knots; 3.1 m/s)
Visibility: 6 or more miles (10+ km)
Ceiling: 1000 feet AGL
Clouds: broken clouds at 1000 feet AGL
broken clouds at 2600 feet AGL
Weather: no significant weather observed at this time

METAR text: ZJHK 191200Z 08005MPS 9999 BKN012 BKN026 21/19 Q1017 BECMG TL1350 BKN009 BKN026
Conditions at: ZJHK (HAIKOU , CN) observed 1200 UTC 19 January 2019
Temperature: 21.0°C (70°F)
Dewpoint: 19.0°C (66°F) [RH = 88%]
Pressure (altimeter): 30.03 inches Hg (1017.0 mb)
Winds: from the E (80 degrees) at 12 MPH (10 knots; 5.1 m/s)
Visibility: 6 or more miles (10+ km)
Ceiling: 1200 feet AGL
Clouds: broken clouds at 1200 feet AGL
broken clouds at 2600 feet AGL
Weather: no significant weather observed at this time

METAR text: ZJHK 191100Z 08005MPS 9999 BKN012 BKN026 22/20 Q1016 NOSIG
Conditions at: ZJHK (HAIKOU , CN) observed 1100 UTC 19 January 2019
Temperature: 22.0°C (72°F)
Dewpoint: 20.0°C (68°F) [RH = 88%]
Pressure (altimeter): 30.00 inches Hg (1016.0 mb)
Winds: from the E (80 degrees) at 12 MPH (10 knots; 5.1 m/s)
Visibility: 6 or more miles (10+ km)
Ceiling: 1200 feet AGL
Clouds: broken clouds at 1200 feet AGL
broken clouds at 2600 feet AGL
Weather: no significant weather observed at this time

Forecast for: ZJHK (HAIKOU , CN)
Text: TAF ZJHK 201907Z 2100/2124 04004MPS 6000 SCT010 BKN026 TX20/2107Z TN17/2121Z
Forecast period: 0000 UTC 21 January 2019 to 0000 UTC 22 January 2019
Forecast type: FROM: standard forecast or significant change
Winds: from the NE (40 degrees) at 9 MPH (8 knots; 4.1 m/s)
Visibility: 4 miles (6 km)
Ceiling: 2600 feet AGL
Clouds: scattered clouds at 1000 feet AGL
broken clouds at 2600 feet AGL
Weather: no significant weather forecast for this period